createdAt,value
2023-05-21T00:00:12.213Z,99750.00
2023-05-21T00:02:41.038Z,99751.00
2023-05-21T00:05:13.775Z,99760.00
2023-05-21T00:07:44.124Z,99747.00
2023-05-21T00:10:12.531Z,99728.00
2023-05-21T00:12:41.690Z,99741.00
2023-05-21T00:15:11.036Z,99740.00
2023-05-21T00:17:40.102Z,99735.00
2023-05-21T00:20:10.071Z,99733.00
2023-05-21T00:22:38.099Z,99735.00
2023-05-21T00:25:08.471Z,99727.00
2023-05-21T00:27:36.427Z,99731.00
2023-05-21T00:30:04.895Z,99725.00
2023-05-21T00:32:32.916Z,99727.00
2023-05-21T00:35:00.903Z,99727.00
2023-05-21T00:37:29.738Z,99720.00
2023-05-21T00:39:58.528Z,99716.00
2023-05-21T00:42:30.594Z,99726.00
2023-05-21T00:44:58.589Z,99719.00
2023-05-21T00:47:29.600Z,99707.00
2023-05-21T00:49:57.794Z,99709.00
2023-05-21T00:52:27.013Z,99703.00
2023-05-21T00:54:56.096Z,99711.00
2023-05-21T00:57:28.035Z,99709.00
2023-05-21T00:59:56.425Z,99709.00
2023-05-21T01:02:26.099Z,99702.00
2023-05-21T01:04:56.289Z,99697.00
2023-05-21T01:07:24.284Z,99708.00
2023-05-21T01:09:54.187Z,99698.00
2023-05-21T01:12:24.367Z,99699.00
2023-05-21T01:14:54.355Z,99693.00
2023-05-21T01:17:24.371Z,99690.00
2023-05-21T01:19:54.684Z,99684.00
2023-05-21T01:22:24.870Z,99682.00
2023-05-21T01:24:56.286Z,99678.00
2023-05-21T01:27:24.388Z,99680.00
2023-05-21T01:29:52.337Z,99680.00
2023-05-21T01:32:29.271Z,99683.00
2023-05-21T01:35:05.422Z,99682.00
2023-05-21T01:37:41.650Z,99689.00
2023-05-21T01:40:22.751Z,99683.00
2023-05-21T01:42:50.807Z,99679.00
2023-05-21T01:45:19.558Z,99677.00
2023-05-21T01:47:51.201Z,99681.00
2023-05-21T01:50:19.963Z,99684.00
2023-05-21T01:52:51.753Z,99663.00
2023-05-21T01:55:24.729Z,99683.00
2023-05-21T01:57:53.806Z,99690.00
2023-05-21T02:00:23.383Z,99690.00
2023-05-21T02:02:51.845Z,99677.00
2023-05-21T02:05:20.086Z,99682.00
2023-05-21T02:07:49.795Z,99676.00
2023-05-21T02:10:17.926Z,99672.00
2023-05-21T02:12:47.418Z,99675.00
2023-05-21T02:15:17.881Z,99673.00
2023-05-21T02:17:46.504Z,99676.00
2023-05-21T02:20:15.606Z,99671.00
2023-05-21T02:22:46.419Z,99665.00
2023-05-21T02:25:16.752Z,99662.00
2023-05-21T02:27:46.575Z,99662.00
2023-05-21T02:30:16.743Z,99655.00
2023-05-21T02:32:45.121Z,99660.00
2023-05-21T02:35:14.341Z,99653.00
2023-05-21T02:37:44.248Z,99662.00
2023-05-21T02:40:13.577Z,99661.00
2023-05-21T02:42:42.622Z,99664.00
2023-05-21T02:45:16.544Z,99663.00
2023-05-21T02:47:45.150Z,99661.00
2023-05-21T02:50:15.464Z,99648.00
2023-05-21T02:52:52.488Z,99651.00
2023-05-21T02:55:20.986Z,99652.00
2023-05-21T02:57:49.234Z,99652.00
2023-05-21T03:00:18.987Z,99654.00
2023-05-21T03:02:47.298Z,99656.00
2023-05-21T03:05:15.321Z,99650.00
2023-05-21T03:07:43.622Z,99647.00
2023-05-21T03:10:12.274Z,99647.00
2023-05-21T03:12:40.357Z,99652.00
2023-05-21T03:15:09.851Z,99651.00
2023-05-21T03:17:39.473Z,99654.00
2023-05-21T03:20:16.007Z,99648.00
2023-05-21T03:22:44.441Z,99648.00
2023-05-21T03:25:13.655Z,99653.00
2023-05-21T03:27:41.984Z,99656.00
2023-05-21T03:30:25.017Z,99653.00
2023-05-21T03:33:17.063Z,99647.00
2023-05-21T03:35:45.540Z,99650.00
2023-05-21T03:38:13.669Z,99652.00
2023-05-21T03:40:41.645Z,99650.00
2023-05-21T03:43:09.936Z,99650.00
2023-05-21T03:45:38.335Z,99654.00
2023-05-21T03:48:33.824Z,99656.00
2023-05-21T03:51:02.828Z,99651.00
2023-05-21T03:53:30.780Z,99653.00
2023-05-21T03:55:58.714Z,99648.00
2023-05-21T03:58:26.794Z,99651.00
2023-05-21T04:00:55.388Z,99656.00
2023-05-21T04:03:23.802Z,99651.00
2023-05-21T04:05:53.634Z,99647.00
2023-05-21T04:08:21.699Z,99654.00
2023-05-21T04:10:49.673Z,99653.00
2023-05-21T04:13:17.663Z,99652.00
2023-05-21T04:15:46.688Z,99655.00
2023-05-21T04:18:16.460Z,99653.00
2023-05-21T04:20:45.201Z,99662.00
2023-05-21T04:23:14.591Z,99655.00
2023-05-21T04:25:42.688Z,99675.00
2023-05-21T04:28:11.081Z,99668.00
2023-05-21T04:30:39.116Z,99675.00
2023-05-21T04:33:07.334Z,99675.00
2023-05-21T04:35:36.062Z,99679.00
2023-05-21T04:38:05.689Z,99676.00
2023-05-21T04:40:36.697Z,99666.00
2023-05-21T04:43:05.016Z,99674.00
2023-05-21T04:45:33.591Z,99675.00
2023-05-21T04:48:02.920Z,99679.00
2023-05-21T04:50:31.677Z,99676.00
2023-05-21T04:52:59.770Z,99678.00
2023-05-21T04:55:28.936Z,99663.00
2023-05-21T04:57:58.387Z,99661.00
2023-05-21T05:00:26.554Z,99676.00
2023-05-21T05:02:55.087Z,99678.00
2023-05-21T05:05:23.214Z,99674.00
2023-05-21T05:07:51.292Z,99675.00
2023-05-21T05:10:19.272Z,99674.00
2023-05-21T05:12:47.315Z,99670.00
2023-05-21T05:15:16.932Z,99669.00
2023-05-21T05:17:48.194Z,99672.00
2023-05-21T05:20:16.318Z,99670.00
2023-05-21T05:22:44.297Z,99671.00
2023-05-21T05:25:13.728Z,99671.00
2023-05-21T05:27:41.831Z,99671.00
2023-05-21T05:30:10.974Z,99670.00
2023-05-21T05:32:40.428Z,99668.00
2023-05-21T05:35:10.561Z,99670.00
2023-05-21T05:37:38.657Z,99665.00
2023-05-21T05:40:08.873Z,99666.00
2023-05-21T05:42:36.856Z,99669.00
2023-05-21T05:45:12.807Z,99665.00
2023-05-21T05:47:42.821Z,99669.00
2023-05-21T05:50:11.945Z,99672.00
2023-05-21T05:52:39.958Z,99666.00
2023-05-21T05:55:09.825Z,99666.00
2023-05-21T05:57:38.514Z,99657.00
2023-05-21T06:00:13.597Z,99658.00
2023-05-21T06:02:45.253Z,99667.00
2023-05-21T06:05:13.545Z,99659.00
2023-05-21T06:07:42.141Z,99660.00
2023-05-21T06:10:11.216Z,99662.00
2023-05-21T06:12:39.181Z,99662.00
2023-05-21T06:15:09.320Z,99666.00
2023-05-21T06:17:37.714Z,99659.00
2023-05-21T06:20:10.260Z,99659.00
2023-05-21T06:22:38.635Z,99665.00
2023-05-21T06:25:10.697Z,99651.00
2023-05-21T06:27:39.493Z,99669.00
2023-05-21T06:30:14.225Z,99671.00
2023-05-21T06:32:42.283Z,99657.00
2023-05-21T06:35:12.101Z,99663.00
2023-05-21T06:37:40.405Z,99664.00
2023-05-21T06:40:11.061Z,99662.00
2023-05-21T06:42:40.626Z,99658.00
2023-05-21T06:45:28.570Z,99660.00
2023-05-21T06:48:01.082Z,99664.00
2023-05-21T06:50:30.538Z,99666.00
2023-05-21T06:52:58.565Z,99668.00
2023-05-21T06:55:26.541Z,99654.00
2023-05-21T06:58:05.084Z,99653.00
2023-05-21T07:00:33.807Z,99654.00
2023-05-21T07:03:01.997Z,99646.00
2023-05-21T07:05:31.700Z,99652.00
2023-05-21T07:07:59.642Z,99663.00
2023-05-21T07:10:27.616Z,99655.00
2023-05-21T07:12:55.608Z,99654.00
2023-05-21T07:15:23.762Z,99650.00
2023-05-21T07:17:52.025Z,99658.00
2023-05-21T07:20:20.689Z,99650.00
2023-05-21T07:22:52.563Z,99651.00
2023-05-21T07:25:20.976Z,99652.00
2023-05-21T07:27:48.904Z,99656.00
2023-05-21T07:30:17.005Z,99658.00
2023-05-21T07:32:45.069Z,99656.00
2023-05-21T07:35:13.147Z,99653.00
2023-05-21T07:37:41.704Z,99645.00
2023-05-21T07:40:14.007Z,99647.00
2023-05-21T07:42:43.509Z,99647.00
2023-05-21T07:45:13.188Z,99644.00
2023-05-21T07:47:47.054Z,99644.00
2023-05-21T07:50:15.753Z,99650.00
2023-05-21T07:52:43.937Z,99638.00
2023-05-21T07:55:13.752Z,99644.00
2023-05-21T07:57:42.492Z,99642.00
2023-05-21T08:00:15.402Z,99648.00
2023-05-21T08:02:43.746Z,99641.00
2023-05-21T08:05:14.077Z,99643.00
2023-05-21T08:07:42.110Z,99640.00
2023-05-21T08:10:10.874Z,99647.00
2023-05-21T08:12:40.268Z,99654.00
2023-05-21T08:15:10.216Z,99643.00
2023-05-21T08:17:43.656Z,99647.00
2023-05-21T08:20:14.458Z,99646.00
2023-05-21T08:22:44.731Z,99647.00
2023-05-21T08:25:13.169Z,99644.00
2023-05-21T08:27:42.951Z,99657.00
2023-05-21T08:30:11.960Z,99650.00
2023-05-21T08:32:40.120Z,99643.00
2023-05-21T08:35:09.427Z,99645.00
2023-05-21T08:37:52.252Z,99643.00
2023-05-21T08:40:33.420Z,99636.00
2023-05-21T08:43:02.753Z,99638.00
2023-05-21T08:45:43.973Z,99647.00
2023-05-21T08:48:13.233Z,99643.00
2023-05-21T08:50:42.649Z,99636.00
2023-05-21T08:53:27.387Z,99636.00
2023-05-21T08:55:58.079Z,99647.00
2023-05-21T08:58:38.344Z,99634.00
2023-05-21T09:01:06.866Z,99637.00
2023-05-21T09:03:41.860Z,99630.00
2023-05-21T09:06:14.045Z,99619.00
2023-05-21T09:08:46.110Z,99624.00
2023-05-21T09:11:20.247Z,99618.00
2023-05-21T09:13:59.121Z,99621.00
2023-05-21T09:16:35.121Z,99621.00
2023-05-21T09:19:04.776Z,99621.00
2023-05-21T09:21:36.801Z,99622.00
2023-05-21T09:24:17.442Z,99609.00
2023-05-21T09:26:45.627Z,99615.00
2023-05-21T09:29:15.597Z,99622.00
2023-05-21T09:31:45.835Z,99617.00
2023-05-21T09:34:15.008Z,99618.00
2023-05-21T09:36:44.765Z,99613.00
2023-05-21T09:39:16.474Z,99618.00
2023-05-21T09:41:45.373Z,99625.00
2023-05-21T09:44:14.929Z,99623.00
2023-05-21T09:46:43.551Z,99607.00
2023-05-21T09:49:26.304Z,99616.00
2023-05-21T09:51:57.155Z,99606.00
2023-05-21T09:54:25.955Z,99616.00
2023-05-21T09:56:54.269Z,99606.00
2023-05-21T09:59:24.314Z,99603.00
2023-05-21T10:01:55.341Z,99611.00
2023-05-21T10:04:24.644Z,99606.00
2023-05-21T10:06:53.761Z,99610.00
2023-05-21T10:09:22.644Z,99616.00
2023-05-21T10:11:55.342Z,99603.00
2023-05-21T10:14:31.902Z,99607.00
2023-05-21T10:17:01.697Z,99599.00
2023-05-21T10:19:33.779Z,99598.00
2023-05-21T10:22:04.373Z,99600.00
2023-05-21T10:24:35.154Z,99594.00
2023-05-21T10:27:04.835Z,99591.00
2023-05-21T10:29:37.844Z,99600.00
2023-05-21T10:32:08.208Z,99601.00
2023-05-21T10:34:38.866Z,99601.00
2023-05-21T10:37:10.333Z,99603.00
2023-05-21T10:39:40.649Z,99582.00
2023-05-21T10:42:22.089Z,99586.00
2023-05-21T10:45:09.333Z,99596.00
2023-05-21T10:48:06.535Z,99585.00
2023-05-21T10:50:57.236Z,99591.00
2023-05-21T10:53:42.353Z,99593.00
2023-05-21T10:56:23.902Z,99580.00
2023-05-21T10:59:21.793Z,99585.00
2023-05-21T11:01:53.594Z,99596.00
2023-05-21T11:04:27.832Z,99587.00
2023-05-21T11:06:56.408Z,99585.00
2023-05-21T11:09:24.652Z,99591.00
2023-05-21T11:11:54.012Z,99586.00
2023-05-21T11:14:38.219Z,99598.00
2023-05-21T11:17:14.387Z,99594.00
2023-05-21T11:19:44.233Z,99591.00
2023-05-21T11:22:23.945Z,99594.00
2023-05-21T11:24:53.652Z,99589.00
2023-05-21T11:27:36.464Z,99574.00
2023-05-21T11:30:09.076Z,99585.00
2023-05-21T11:33:20.290Z,99578.00
2023-05-21T11:36:00.045Z,99586.00
2023-05-21T11:38:30.930Z,99580.00
2023-05-21T11:41:04.624Z,99580.00
2023-05-21T11:43:32.576Z,99583.00
2023-05-21T11:46:00.954Z,99579.00
2023-05-21T11:48:33.158Z,99583.00
2023-05-21T11:51:02.182Z,99587.00
2023-05-21T11:53:31.361Z,99576.00
2023-05-21T11:55:59.902Z,99578.00
2023-05-21T11:58:32.134Z,99556.00
2023-05-21T12:01:00.108Z,99600.00
2023-05-21T12:03:30.409Z,99575.00
2023-05-21T12:06:06.661Z,99561.00
2023-05-21T12:08:35.849Z,99565.00
2023-05-21T12:11:03.818Z,99565.00
2023-05-21T12:13:32.172Z,99577.00
2023-05-21T12:16:00.744Z,99582.00
2023-05-21T12:18:28.924Z,99568.00
2023-05-21T12:20:57.270Z,99564.00
2023-05-21T12:23:27.073Z,99572.00
2023-05-21T12:25:56.269Z,99573.00
2023-05-21T12:28:25.517Z,99566.00
2023-05-21T12:30:54.010Z,99573.00
2023-05-21T12:33:24.417Z,99569.00
2023-05-21T12:35:53.261Z,99566.00
2023-05-21T12:38:21.241Z,99572.00
2023-05-21T12:40:50.546Z,99564.00
2023-05-21T12:43:18.474Z,99572.00
2023-05-21T12:45:46.527Z,99571.00
2023-05-21T12:48:14.472Z,99563.00
2023-05-21T12:50:43.984Z,99562.00
2023-05-21T12:53:12.904Z,99581.00
2023-05-21T12:55:41.332Z,99584.00
2023-05-21T12:58:15.059Z,99560.00
2023-05-21T13:00:43.823Z,99566.00
2023-05-21T13:03:12.415Z,99554.00
2023-05-21T13:05:42.208Z,99576.00
2023-05-21T13:08:10.680Z,99555.00
2023-05-21T13:10:38.997Z,99557.00
2023-05-21T13:13:07.209Z,99556.00
2023-05-21T13:15:36.435Z,99546.00
2023-05-21T13:18:04.397Z,99545.00
2023-05-21T13:20:32.396Z,99543.00
2023-05-21T13:23:01.679Z,99541.00
2023-05-21T13:25:32.533Z,99543.00
2023-05-21T13:28:04.982Z,99536.00
2023-05-21T13:30:34.227Z,99531.00
2023-05-21T13:33:04.173Z,99543.00
2023-05-21T13:35:32.288Z,99528.00
2023-05-21T13:38:00.351Z,99553.00
2023-05-21T13:40:28.459Z,99536.00
2023-05-21T13:42:56.450Z,99536.00
2023-05-21T13:45:28.992Z,99540.00
2023-05-21T13:47:57.393Z,99539.00
2023-05-21T13:50:27.046Z,99530.00
2023-05-21T13:52:55.115Z,99528.00
2023-05-21T13:55:23.390Z,99526.00
2023-05-21T13:57:51.348Z,99530.00
2023-05-21T14:00:19.311Z,99531.00
2023-05-21T14:02:47.420Z,99539.00
2023-05-21T14:05:15.588Z,99539.00
2023-05-21T14:07:47.484Z,99548.00
2023-05-21T14:10:15.752Z,99557.00
2023-05-21T14:12:45.932Z,99548.00
2023-05-21T14:15:14.044Z,99548.00
2023-05-21T14:17:42.528Z,99534.00
2023-05-21T14:20:14.495Z,99546.00
2023-05-21T14:22:44.406Z,99544.00
2023-05-21T14:25:12.538Z,99540.00
2023-05-21T14:27:40.517Z,99536.00
2023-05-21T14:30:10.261Z,99523.00
2023-05-21T14:32:38.210Z,99528.00
2023-05-21T14:35:07.206Z,99522.00
2023-05-21T14:37:35.831Z,99530.00
2023-05-21T14:40:07.877Z,99527.00
2023-05-21T14:42:36.726Z,99542.00
2023-05-21T14:45:18.145Z,99531.00
2023-05-21T14:47:48.677Z,99541.00
2023-05-21T14:50:19.573Z,99511.00
2023-05-21T14:52:47.531Z,99525.00
2023-05-21T14:55:18.428Z,99523.00
2023-05-21T14:57:46.366Z,99541.00
2023-05-21T15:00:15.533Z,99521.00
2023-05-21T15:02:43.684Z,99523.00
2023-05-21T15:05:11.845Z,99531.00
2023-05-21T15:07:39.846Z,99538.00
2023-05-21T15:10:09.951Z,99531.00
2023-05-21T15:12:39.751Z,99530.00
2023-05-21T15:15:09.057Z,99531.00
2023-05-21T15:17:37.306Z,99529.00
2023-05-21T15:20:07.218Z,99535.00
2023-05-21T15:22:35.332Z,99526.00
2023-05-21T15:27:03.858Z,99520.00
2023-05-21T15:29:31.926Z,99511.00
2023-05-21T15:32:01.122Z,99521.00
2023-05-21T15:34:29.178Z,99511.00
2023-05-21T15:36:57.898Z,99507.00
2023-05-21T15:39:25.898Z,99507.00
2023-05-21T15:41:54.601Z,99523.00
2023-05-21T15:44:25.534Z,99523.00
2023-05-21T15:46:54.812Z,99513.00
2023-05-21T15:49:23.039Z,99516.00
2023-05-21T15:51:51.622Z,99515.00
2023-05-21T15:54:19.593Z,99522.00
2023-05-21T15:56:47.713Z,99532.00
2023-05-21T15:59:15.744Z,99506.00
2023-05-21T16:01:45.334Z,99505.00
2023-05-21T16:04:13.420Z,99514.00
2023-05-21T16:06:41.401Z,99511.00
2023-05-21T16:09:09.418Z,99509.00
2023-05-21T16:11:37.361Z,99516.00
2023-05-21T16:14:05.353Z,99513.00
2023-05-21T16:16:33.354Z,99507.00
2023-05-21T16:19:02.764Z,99514.00
2023-05-21T16:21:31.857Z,99506.00
2023-05-21T16:23:59.856Z,99506.00
2023-05-21T16:26:27.939Z,99497.00
2023-05-21T16:28:55.924Z,99498.00
2023-05-21T16:31:24.138Z,99501.00
2023-05-21T16:33:52.101Z,99509.00
2023-05-21T16:36:21.458Z,99498.00
2023-05-21T16:38:49.430Z,99505.00
2023-05-21T16:41:17.615Z,99498.00
2023-05-21T16:43:45.724Z,99497.00
2023-05-21T16:46:14.397Z,99494.00
2023-05-21T16:48:42.767Z,99504.00
2023-05-21T16:51:10.755Z,99498.00
2023-05-21T16:53:40.064Z,99498.00
2023-05-21T16:56:08.483Z,99491.00
2023-05-21T16:58:37.007Z,99492.00
2023-05-21T17:01:05.164Z,99497.00
2023-05-21T17:03:33.446Z,99494.00
2023-05-21T17:06:01.397Z,99498.00
2023-05-21T17:08:29.366Z,99501.00
2023-05-21T17:10:58.899Z,99491.00
2023-05-21T17:13:26.916Z,99498.00
2023-05-21T17:15:54.886Z,99496.00
2023-05-21T17:18:22.903Z,99499.00
2023-05-21T17:20:50.849Z,99499.00
2023-05-21T17:23:18.983Z,99506.00
2023-05-21T17:25:47.032Z,99505.00
2023-05-21T17:28:16.269Z,99507.00
2023-05-21T17:30:44.230Z,99507.00
2023-05-21T17:33:12.357Z,99509.00
2023-05-21T17:35:40.441Z,99507.00
2023-05-21T17:38:08.529Z,99514.00
2023-05-21T17:40:36.887Z,99513.00
2023-05-21T17:43:07.116Z,99509.00
2023-05-21T17:45:36.875Z,99514.00
2023-05-21T17:48:05.745Z,99510.00
2023-05-21T17:50:34.225Z,99509.00
2023-05-21T17:53:02.313Z,99516.00
2023-05-21T17:55:30.527Z,99515.00
2023-05-21T17:57:58.874Z,99512.00
2023-05-21T18:00:27.641Z,99511.00
2023-05-21T18:02:56.964Z,99513.00
2023-05-21T18:05:25.020Z,99511.00
2023-05-21T18:07:53.029Z,99517.00
2023-05-21T18:10:20.973Z,99514.00
2023-05-21T18:12:48.933Z,99519.00
2023-05-21T18:15:17.313Z,99515.00
2023-05-21T18:17:45.535Z,99514.00
2023-05-21T18:20:15.555Z,99525.00
2023-05-21T18:22:43.500Z,99521.00
2023-05-21T18:25:12.242Z,99523.00
2023-05-21T18:27:40.202Z,99521.00
2023-05-21T18:30:09.722Z,99524.00
2023-05-21T18:32:39.337Z,99526.00
2023-05-21T18:35:10.650Z,99520.00
2023-05-21T18:37:42.907Z,99519.00
2023-05-21T18:40:12.861Z,99516.00
2023-05-21T18:42:41.235Z,99523.00
2023-05-21T18:45:11.166Z,99525.00
2023-05-21T18:47:40.524Z,99528.00
2023-05-21T18:50:12.266Z,99533.00
2023-05-21T18:52:41.654Z,99532.00
2023-05-21T18:55:10.939Z,99531.00
2023-05-21T18:57:39.017Z,99541.00
2023-05-21T19:00:10.678Z,99527.00
2023-05-21T19:02:39.705Z,99538.00
2023-05-21T19:05:09.499Z,99524.00
2023-05-21T19:07:37.704Z,99535.00
2023-05-21T19:10:08.803Z,99537.00
2023-05-21T19:12:37.667Z,99537.00
2023-05-21T19:15:06.959Z,99539.00
2023-05-21T19:17:36.256Z,99538.00
2023-05-21T19:20:05.349Z,99544.00
2023-05-21T19:22:33.612Z,99552.00
2023-05-21T19:25:01.769Z,99546.00
2023-05-21T19:27:31.116Z,99555.00
2023-05-21T19:29:59.065Z,99549.00
2023-05-21T19:32:27.202Z,99562.00
2023-05-21T19:34:57.391Z,99555.00
2023-05-21T19:37:26.115Z,99552.00
2023-05-21T19:39:54.106Z,99554.00
2023-05-21T19:42:22.198Z,99564.00
2023-05-21T19:44:51.765Z,99552.00
2023-05-21T19:47:19.735Z,99540.00
2023-05-21T19:49:47.617Z,99546.00
2023-05-21T19:52:15.674Z,99550.00
2023-05-21T19:54:43.762Z,99549.00
2023-05-21T19:57:13.403Z,99552.00
2023-05-21T19:59:41.759Z,99549.00
2023-05-21T20:02:15.952Z,99551.00
2023-05-21T20:04:44.683Z,99549.00
2023-05-21T20:07:12.632Z,99546.00
2023-05-21T20:09:41.279Z,99546.00
2023-05-21T20:12:10.126Z,99547.00
2023-05-21T20:14:38.222Z,99550.00
2023-05-21T20:17:07.051Z,99547.00
2023-05-21T20:19:37.906Z,99540.00
2023-05-21T20:22:06.613Z,99540.00
2023-05-21T20:24:34.656Z,99542.00
2023-05-21T20:27:02.628Z,99542.00
2023-05-21T20:29:30.795Z,99539.00
2023-05-21T20:31:58.971Z,99545.00
2023-05-21T20:34:27.875Z,99554.00
2023-05-21T20:36:58.197Z,99536.00
2023-05-21T20:39:28.601Z,99531.00
2023-05-21T20:41:58.122Z,99533.00
2023-05-21T20:44:27.569Z,99531.00
2023-05-21T20:46:55.768Z,99535.00
2023-05-21T20:49:25.901Z,99540.00
2023-05-21T20:51:53.925Z,99535.00
2023-05-21T20:54:23.408Z,99536.00
2023-05-21T20:56:54.766Z,99538.00
2023-05-21T20:59:22.836Z,99543.00
2023-05-21T21:01:52.599Z,99539.00
2023-05-21T21:04:20.790Z,99539.00
2023-05-21T21:06:50.279Z,99548.00
2023-05-21T21:09:18.362Z,99555.00
2023-05-21T21:11:47.725Z,99563.00
2023-05-21T21:14:15.886Z,99550.00
2023-05-21T21:16:43.969Z,99548.00
2023-05-21T21:19:12.242Z,99565.00
2023-05-21T21:21:40.335Z,99557.00
2023-05-21T21:24:09.142Z,99555.00
2023-05-21T21:26:37.155Z,99571.00
2023-05-21T21:29:06.458Z,99556.00
2023-05-21T21:31:34.566Z,99560.00
2023-05-21T21:34:02.591Z,99546.00
2023-05-21T21:36:31.219Z,99552.00
2023-05-21T21:38:59.286Z,99550.00
2023-05-21T21:41:27.312Z,99551.00
2023-05-21T21:43:55.424Z,99546.00
2023-05-21T21:46:26.217Z,99546.00
2023-05-21T21:48:54.279Z,99550.00
2023-05-21T21:51:23.582Z,99551.00
2023-05-21T21:53:51.844Z,99548.00
2023-05-21T21:56:19.881Z,99546.00
2023-05-21T21:58:48.063Z,99549.00
2023-05-21T22:01:16.026Z,99545.00
2023-05-21T22:03:45.356Z,99551.00
2023-05-21T22:06:13.265Z,99564.00
2023-05-21T22:08:41.345Z,99551.00
2023-05-21T22:11:09.952Z,99565.00
2023-05-21T22:13:38.411Z,99556.00
2023-05-21T22:16:07.682Z,99560.00
2023-05-21T22:18:40.413Z,99557.00
2023-05-21T22:21:14.267Z,99566.00
2023-05-21T22:23:42.552Z,99560.00
2023-05-21T22:26:11.081Z,99564.00
2023-05-21T22:28:39.053Z,99556.00
2023-05-21T22:31:07.288Z,99550.00
2023-05-21T22:33:36.631Z,99553.00
2023-05-21T22:36:04.911Z,99553.00
2023-05-21T22:38:34.420Z,99550.00
2023-05-21T22:41:03.509Z,99556.00
2023-05-21T22:43:31.726Z,99553.00
2023-05-21T22:45:59.980Z,99553.00
2023-05-21T22:48:30.497Z,99553.00
2023-05-21T22:50:59.025Z,99560.00
2023-05-21T22:53:27.222Z,99555.00
2023-05-21T22:55:56.522Z,99556.00
2023-05-21T22:58:24.605Z,99561.00
2023-05-21T23:00:52.574Z,99567.00
2023-05-21T23:03:20.676Z,99555.00
2023-05-21T23:05:48.731Z,99561.00
2023-05-21T23:08:16.781Z,99555.00
2023-05-21T23:10:44.789Z,99548.00
2023-05-21T23:13:14.056Z,99564.00
2023-05-21T23:15:43.650Z,99557.00
2023-05-21T23:18:12.456Z,99555.00
2023-05-21T23:20:41.564Z,99560.00
2023-05-21T23:23:10.334Z,99554.00
2023-05-21T23:25:38.476Z,99550.00
2023-05-21T23:28:06.799Z,99550.00
2023-05-21T23:30:36.512Z,99552.00
2023-05-21T23:33:04.794Z,99552.00
2023-05-21T23:35:32.788Z,99548.00
2023-05-21T23:38:00.909Z,99545.00
2023-05-21T23:40:28.871Z,99552.00
2023-05-21T23:42:56.908Z,99549.00
2023-05-21T23:45:24.995Z,99546.00
2023-05-21T23:47:54.697Z,99556.00
2023-05-21T23:50:22.955Z,99551.00
2023-05-21T23:52:51.210Z,99550.00
2023-05-21T23:55:19.172Z,99548.00
2023-05-21T23:57:47.203Z,99556.00
